Flight Track Log - Related Links

Times and Time Zones

All times are in EDT time to prevent confusion due to time zone crossing. See the N8KU flight status page for this flight to view local times or setup timezone preferences in your user account.

Time Position Orientation Groundspeed Altitude Reporting Facility
EDT Latitude Longitude Course Direction KTS MPH feet Rate Location/Type
Wed 02:00:15 PM 34.2287 -77.9610 211° Southwest  Level FlightAware Approximate
Wed 02:01:24 PM 34.2128 -77.9728 219° Southwest 134 154 3,700  Level Washington Center
Wed 02:02:25 PM 34.1808 -78.0044 220° Southwest 150 173 5,400 1,512 Climbing Washington Center
Wed 02:05:34 PM 34.0714 -78.1144 229° Southwest 175 201 10,000 1,373 Climbing Jacksonville Center
Wed 02:06:34 PM 34.0397 -78.1589 232° Southwest 175 201 11,100 950 Climbing Jacksonville Center
Wed 02:07:34 PM 34.0100 -78.2056 229° Southwest 166 191 11,900 850 Climbing Jacksonville Center
Wed 02:08:34 PM 33.9764 -78.2522 238° Southwest 181 208 12,800 1,000 Climbing Jacksonville Center
Wed 02:09:34 PM 33.9492 -78.3039 248° West 187 215 13,900 600 Climbing Jacksonville Center
Wed 02:10:34 PM 33.9283 -78.3650 249° West 187 215 14,000 50 Climbing Jacksonville Center
Wed 02:11:34 PM 33.9078 -78.4286 250° West 204 235 14,000 -50 Level Jacksonville Center
Wed 02:12:34 PM 33.8872 -78.4972 248° West 210 242 13,900 -50 Descending Jacksonville Center
Wed 02:13:34 PM 33.8664 -78.5608 219° Southwest 215 247 13,900  Level Jacksonville Center
Wed 02:14:34 PM 33.8200 -78.6056 222° Southwest 210 242 13,900  Level Jacksonville Center
Wed 02:15:34 PM 33.7717 -78.6578 222° Southwest 223 257 13,900  Level Jacksonville Center
Wed 02:16:34 PM 33.7253 -78.7075 229° Southwest 229 264 13,900  Level Jacksonville Center
Wed 02:17:34 PM 33.6853 -78.7619 228° Southwest 229 264 13,900 50 Level Jacksonville Center
Wed 02:18:34 PM 33.6453 -78.8161 234° Southwest 224 258 14,000  Climbing Jacksonville Center
Wed 02:19:34 PM 33.6117 -78.8725 234° Southwest 219 252 13,900 -450 Descending Jacksonville Center
Wed 02:20:34 PM 33.5739 -78.9342 230° Southwest 219 252 13,100 -850 Descending Jacksonville Center
Wed 02:21:34 PM 33.5300 -78.9958 224° Southwest 230 265 12,200 -850 Descending Jacksonville Center
Wed 02:22:34 PM 33.4836 -79.0500 228° Southwest 241 277 11,400 -650 Descending Jacksonville Center
Wed 02:23:34 PM 33.4394 -79.1092 222° Southwest 246 283 10,900 -250 Descending Jacksonville Center
Wed 02:24:34 PM 33.4011 -79.1506 224° Southwest 235 270 10,900  Level Jacksonville Center
Wed 02:25:34 PM 33.3589 -79.1997 230° Southwest 224 258 10,900  Level Jacksonville Center
Wed 02:26:34 PM 33.3247 -79.2483 227° Southwest 210 242 10,900  Level Jacksonville Center
Wed 02:27:34 PM 33.2864 -79.2972 225° Southwest 205 236 10,900  Level Jacksonville Center
Wed 02:28:34 PM 33.2481 -79.3433 227° Southwest 197 227 10,900  Level Jacksonville Center
Wed 02:29:34 PM 33.2119 -79.3894 228° Southwest 197 227 10,900 -350 Level Jacksonville Center
Wed 02:30:34 PM 33.1736 -79.4406 227° Southwest 197 227 10,200 -1,000 Descending Jacksonville Center
Wed 02:31:34 PM 33.1311 -79.4944 227° Southwest 208 239 8,900 -1,400 Descending Jacksonville Center
Wed 02:32:34 PM 33.0908 -79.5456 227° Southwest 214 246 7,400 -1,400 Descending Jacksonville Center
Wed 02:33:34 PM 33.0506 -79.5967 225° Southwest 214 246 6,100 -1,450 Descending Jacksonville Center
Wed 02:34:34 PM 33.0100 -79.6450 228° Southwest 219 252 4,500 -1,600 Descending Jacksonville Center
Wed 02:35:34 PM 32.9756 -79.6908 227° Southwest 213 245 2,900 -950 Descending Jacksonville Center
Wed 02:36:34 PM 32.9311 -79.7469 226° Southwest 206 237 2,600 5,550 Descending Jacksonville Center
Wed 02:37:34 PM 32.8906 -79.7978 226° Southwest 206 237 14,000 5,700 Climbing Jacksonville Center
Wed 02:38:34 PM 32.8500 -79.8486 64° Northeast 206 237 14,000  Level Jacksonville Center
Wed 02:46:15 PM 32.8833 -79.7667 317° Northwest  Level FlightAware Approximate
Wed 02:47:15 PM 32.9228 -79.8108 137° Southeast  Level Estimated
Wed 02:48:15 PM 32.8833 -79.7667 317° Northwest  Level FlightAware Approximate
Wed 02:49:15 PM 32.9228 -79.8108 137° Southeast  Level Estimated
Wed 02:50:15 PM 32.8833 -79.7667 317° Northwest  Level FlightAware Approximate
Wed 02:51:15 PM 32.9228 -79.8108 137° Southeast  Level Estimated
Wed 02:52:15 PM 32.8833 -79.7667 317° Northwest  Level FlightAware Approximate
Wed 02:53:15 PM 32.9228 -79.8108 317° Northwest  Level Estimated

Login

Don't have an account? Register now (free) for customized features, flight alerts, and more!